sensor_id;sensor_type;location;lat;lon;timestamp;temperature;humidity
51007;DHT22;37034;47.886;-3.904;2023-10-08T00:01:29;19.30;88.80
51007;DHT22;37034;47.886;-3.904;2023-10-08T00:03:54;19.30;88.80
51007;DHT22;37034;47.886;-3.904;2023-10-08T00:06:24;19.30;89.00
51007;DHT22;37034;47.886;-3.904;2023-10-08T00:08:50;19.30;88.70
51007;DHT22;37034;47.886;-3.904;2023-10-08T00:11:16;19.30;88.60
51007;DHT22;37034;47.886;-3.904;2023-10-08T00:13:42;19.30;89.00
51007;DHT22;37034;47.886;-3.904;2023-10-08T00:16:10;19.30;88.60
51007;DHT22;37034;47.886;-3.904;2023-10-08T00:18:38;19.30;88.60
51007;DHT22;37034;47.886;-3.904;2023-10-08T00:21:06;19.30;88.60
51007;DHT22;37034;47.886;-3.904;2023-10-08T00:23:32;19.20;88.60
51007;DHT22;37034;47.886;-3.904;2023-10-08T00:26:01;19.20;88.60
51007;DHT22;37034;47.886;-3.904;2023-10-08T00:28:30;19.20;88.60
51007;DHT22;37034;47.886;-3.904;2023-10-08T00:30:57;19.10;88.50
51007;DHT22;37034;47.886;-3.904;2023-10-08T00:33:23;19.10;88.60
51007;DHT22;37034;47.886;-3.904;2023-10-08T00:35:49;19.10;88.50
51007;DHT22;37034;47.886;-3.904;2023-10-08T00:38:15;19.10;88.50
51007;DHT22;37034;47.886;-3.904;2023-10-08T00:40:45;19.10;88.50
51007;DHT22;37034;47.886;-3.904;2023-10-08T00:43:35;19.10;88.40
51007;DHT22;37034;47.886;-3.904;2023-10-08T00:46:06;19.10;88.70
51007;DHT22;37034;47.886;-3.904;2023-10-08T00:48:35;19.10;88.50
51007;DHT22;37034;47.886;-3.904;2023-10-08T00:51:05;19.10;88.30
51007;DHT22;37034;47.886;-3.904;2023-10-08T00:53:59;19.10;88.50
51007;DHT22;37034;47.886;-3.904;2023-10-08T00:56:32;19.10;88.20
51007;DHT22;37034;47.886;-3.904;2023-10-08T00:59:16;19.10;88.20
51007;DHT22;37034;47.886;-3.904;2023-10-08T01:01:46;19.00;88.10
51007;DHT22;37034;47.886;-3.904;2023-10-08T01:04:21;19.10;88.10
51007;DHT22;37034;47.886;-3.904;2023-10-08T01:06:57;19.10;87.80
51007;DHT22;37034;47.886;-3.904;2023-10-08T01:09:29;19.00;88.00
51007;DHT22;37034;47.886;-3.904;2023-10-08T01:14:52;19.00;87.80
51007;DHT22;37034;47.886;-3.904;2023-10-08T01:17:22;18.90;87.60
51007;DHT22;37034;47.886;-3.904;2023-10-08T01:19:52;18.90;87.60
51007;DHT22;37034;47.886;-3.904;2023-10-08T01:22:50;18.90;87.70
51007;DHT22;37034;47.886;-3.904;2023-10-08T01:25:17;18.90;87.80
51007;DHT22;37034;47.886;-3.904;2023-10-08T01:27:49;18.90;87.90
51007;DHT22;37034;47.886;-3.904;2023-10-08T01:30:15;18.90;87.60
51007;DHT22;37034;47.886;-3.904;2023-10-08T01:32:46;18.90;87.70
51007;DHT22;37034;47.886;-3.904;2023-10-08T01:35:12;18.90;87.90
51007;DHT22;37034;47.886;-3.904;2023-10-08T01:37:51;18.80;87.80
51007;DHT22;37034;47.886;-3.904;2023-10-08T01:40:17;18.80;87.90
51007;DHT22;37034;47.886;-3.904;2023-10-08T01:42:43;18.80;87.90
51007;DHT22;37034;47.886;-3.904;2023-10-08T01:45:09;18.70;88.00
51007;DHT22;37034;47.886;-3.904;2023-10-08T01:47:38;18.70;88.00
51007;DHT22;37034;47.886;-3.904;2023-10-08T01:50:04;18.70;88.00
51007;DHT22;37034;47.886;-3.904;2023-10-08T01:52:49;18.60;88.10
51007;DHT22;37034;47.886;-3.904;2023-10-08T01:55:17;18.60;88.10
51007;DHT22;37034;47.886;-3.904;2023-10-08T01:57:44;18.60;88.20
51007;DHT22;37034;47.886;-3.904;2023-10-08T02:00:10;18.50;88.00
51007;DHT22;37034;47.886;-3.904;2023-10-08T02:02:36;18.60;88.20
51007;DHT22;37034;47.886;-3.904;2023-10-08T02:05:01;18.50;87.90
51007;DHT22;37034;47.886;-3.904;2023-10-08T02:07:29;18.50;87.90
51007;DHT22;37034;47.886;-3.904;2023-10-08T02:09:56;18.50;87.90
51007;DHT22;37034;47.886;-3.904;2023-10-08T02:12:23;18.50;87.80
51007;DHT22;37034;47.886;-3.904;2023-10-08T02:14:48;18.50;87.90
51007;DHT22;37034;47.886;-3.904;2023-10-08T02:17:14;18.40;88.00
51007;DHT22;37034;47.886;-3.904;2023-10-08T02:19:40;18.40;87.80
51007;DHT22;37034;47.886;-3.904;2023-10-08T02:22:07;18.40;87.80
51007;DHT22;37034;47.886;-3.904;2023-10-08T02:24:35;18.40;87.80
51007;DHT22;37034;47.886;-3.904;2023-10-08T02:27:01;18.40;87.80
51007;DHT22;37034;47.886;-3.904;2023-10-08T02:29:29;18.30;87.80
51007;DHT22;37034;47.886;-3.904;2023-10-08T02:31:55;18.30;87.80
51007;DHT22;37034;47.886;-3.904;2023-10-08T02:34:21;18.30;87.70
51007;DHT22;37034;47.886;-3.904;2023-10-08T02:36:47;18.30;87.70
51007;DHT22;37034;47.886;-3.904;2023-10-08T02:39:13;18.30;87.60
51007;DHT22;37034;47.886;-3.904;2023-10-08T02:41:41;18.30;87.40
51007;DHT22;37034;47.886;-3.904;2023-10-08T02:44:08;18.30;87.50
51007;DHT22;37034;47.886;-3.904;2023-10-08T02:46:41;18.30;87.40
51007;DHT22;37034;47.886;-3.904;2023-10-08T02:49:08;18.30;87.20
51007;DHT22;37034;47.886;-3.904;2023-10-08T02:51:38;18.20;87.10
51007;DHT22;37034;47.886;-3.904;2023-10-08T02:54:04;18.20;87.10
51007;DHT22;37034;47.886;-3.904;2023-10-08T02:56:32;18.10;87.20
51007;DHT22;37034;47.886;-3.904;2023-10-08T02:58:58;18.10;87.30
51007;DHT22;37034;47.886;-3.904;2023-10-08T03:01:26;18.20;87.10
51007;DHT22;37034;47.886;-3.904;2023-10-08T03:03:51;18.10;87.20
51007;DHT22;37034;47.886;-3.904;2023-10-08T03:06:27;18.10;87.10
51007;DHT22;37034;47.886;-3.904;2023-10-08T03:08:52;18.10;87.20
51007;DHT22;37034;47.886;-3.904;2023-10-08T03:11:18;18.10;87.00
51007;DHT22;37034;47.886;-3.904;2023-10-08T03:13:44;18.10;86.80
51007;DHT22;37034;47.886;-3.904;2023-10-08T03:16:14;18.10;86.90
51007;DHT22;37034;47.886;-3.904;2023-10-08T03:18:41;18.10;86.90
51007;DHT22;37034;47.886;-3.904;2023-10-08T03:21:15;18.10;86.70
51007;DHT22;37034;47.886;-3.904;2023-10-08T03:24:01;18.10;86.50
51007;DHT22;37034;47.886;-3.904;2023-10-08T03:26:32;18.10;86.60
51007;DHT22;37034;47.886;-3.904;2023-10-08T03:29:03;18.10;86.50
51007;DHT22;37034;47.886;-3.904;2023-10-08T03:31:44;18.10;86.40
51007;DHT22;37034;47.886;-3.904;2023-10-08T03:34:13;18.10;86.30
51007;DHT22;37034;47.886;-3.904;2023-10-08T03:36:41;18.20;86.30
51007;DHT22;37034;47.886;-3.904;2023-10-08T03:39:19;18.20;86.30
51007;DHT22;37034;47.886;-3.904;2023-10-08T03:41:45;18.10;86.10
51007;DHT22;37034;47.886;-3.904;2023-10-08T03:44:23;18.10;86.10
51007;DHT22;37034;47.886;-3.904;2023-10-08T03:46:49;18.10;86.10
51007;DHT22;37034;47.886;-3.904;2023-10-08T03:49:17;18.20;86.10
51007;DHT22;37034;47.886;-3.904;2023-10-08T03:51:47;18.10;85.90
51007;DHT22;37034;47.886;-3.904;2023-10-08T03:54:14;18.10;86.10
51007;DHT22;37034;47.886;-3.904;2023-10-08T03:56:45;18.10;86.00
51007;DHT22;37034;47.886;-3.904;2023-10-08T03:59:15;18.10;86.10
51007;DHT22;37034;47.886;-3.904;2023-10-08T04:02:01;18.10;86.00
51007;DHT22;37034;47.886;-3.904;2023-10-08T04:04:50;18.00;86.00
51007;DHT22;37034;47.886;-3.904;2023-10-08T04:07:24;18.00;86.50
51007;DHT22;37034;47.886;-3.904;2023-10-08T04:09:50;17.90;86.10
51007;DHT22;37034;47.886;-3.904;2023-10-08T04:12:30;17.90;86.20
51007;DHT22;37034;47.886;-3.904;2023-10-08T04:15:03;17.90;86.20
51007;DHT22;37034;47.886;-3.904;2023-10-08T04:17:33;17.80;86.20
51007;DHT22;37034;47.886;-3.904;2023-10-08T04:20:13;17.80;86.10
51007;DHT22;37034;47.886;-3.904;2023-10-08T04:23:02;17.70;86.40
51007;DHT22;37034;47.886;-3.904;2023-10-08T04:25:30;17.60;86.40
51007;DHT22;37034;47.886;-3.904;2023-10-08T04:27:57;17.60;86.60
51007;DHT22;37034;47.886;-3.904;2023-10-08T04:30:27;17.60;86.60
51007;DHT22;37034;47.886;-3.904;2023-10-08T04:33:04;17.70;86.60
51007;DHT22;37034;47.886;-3.904;2023-10-08T04:35:36;17.60;86.50
51007;DHT22;37034;47.886;-3.904;2023-10-08T04:38:04;17.60;86.60
51007;DHT22;37034;47.886;-3.904;2023-10-08T04:40:34;17.60;86.50
51007;DHT22;37034;47.886;-3.904;2023-10-08T04:43:07;17.60;86.50
51007;DHT22;37034;47.886;-3.904;2023-10-08T04:45:36;17.60;86.50
51007;DHT22;37034;47.886;-3.904;2023-10-08T04:48:04;17.60;86.50
51007;DHT22;37034;47.886;-3.904;2023-10-08T04:50:35;17.60;86.60
51007;DHT22;37034;47.886;-3.904;2023-10-08T04:53:02;17.50;86.60
51007;DHT22;37034;47.886;-3.904;2023-10-08T04:55:34;17.50;86.70
51007;DHT22;37034;47.886;-3.904;2023-10-08T04:58:00;17.50;86.70
51007;DHT22;37034;47.886;-3.904;2023-10-08T05:00:30;17.50;86.70
51007;DHT22;37034;47.886;-3.904;2023-10-08T05:03:19;17.50;86.60
51007;DHT22;37034;47.886;-3.904;2023-10-08T05:05:48;17.40;86.50
51007;DHT22;37034;47.886;-3.904;2023-10-08T05:08:22;17.40;86.70
51007;DHT22;37034;47.886;-3.904;2023-10-08T05:10:58;17.40;87.00
51007;DHT22;37034;47.886;-3.904;2023-10-08T05:13:29;17.40;86.90
51007;DHT22;37034;47.886;-3.904;2023-10-08T05:16:00;17.40;87.00
51007;DHT22;37034;47.886;-3.904;2023-10-08T05:18:48;17.40;86.80
51007;DHT22;37034;47.886;-3.904;2023-10-08T05:21:32;17.50;86.80
51007;DHT22;37034;47.886;-3.904;2023-10-08T05:24:16;17.50;86.70
51007;DHT22;37034;47.886;-3.904;2023-10-08T05:26:48;17.40;86.60
51007;DHT22;37034;47.886;-3.904;2023-10-08T05:29:25;17.40;86.60
51007;DHT22;37034;47.886;-3.904;2023-10-08T05:32:29;17.40;86.70
51007;DHT22;37034;47.886;-3.904;2023-10-08T05:35:11;17.40;86.80
51007;DHT22;37034;47.886;-3.904;2023-10-08T05:38:16;17.40;86.80
51007;DHT22;37034;47.886;-3.904;2023-10-08T05:40:48;17.40;86.70
51007;DHT22;37034;47.886;-3.904;2023-10-08T05:43:34;17.40;86.70
51007;DHT22;37034;47.886;-3.904;2023-10-08T05:46:12;17.30;86.70
51007;DHT22;37034;47.886;-3.904;2023-10-08T05:48:54;17.30;86.70
51007;DHT22;37034;47.886;-3.904;2023-10-08T05:51:29;17.40;86.70
51007;DHT22;37034;47.886;-3.904;2023-10-08T05:54:31;17.40;86.60
51007;DHT22;37034;47.886;-3.904;2023-10-08T05:57:07;17.30;86.60
51007;DHT22;37034;47.886;-3.904;2023-10-08T06:02:21;17.30;86.50
51007;DHT22;37034;47.886;-3.904;2023-10-08T06:04:57;17.30;86.60
51007;DHT22;37034;47.886;-3.904;2023-10-08T06:07:36;17.30;86.70
51007;DHT22;37034;47.886;-3.904;2023-10-08T06:10:14;17.30;86.70
51007;DHT22;37034;47.886;-3.904;2023-10-08T06:15:49;17.30;86.60
51007;DHT22;37034;47.886;-3.904;2023-10-08T06:18:29;17.20;86.50
51007;DHT22;37034;47.886;-3.904;2023-10-08T06:20:57;17.20;86.60
51007;DHT22;37034;47.886;-3.904;2023-10-08T06:23:28;17.20;86.60
51007;DHT22;37034;47.886;-3.904;2023-10-08T06:25:55;17.10;86.60
51007;DHT22;37034;47.886;-3.904;2023-10-08T06:28:31;17.20;86.70
51007;DHT22;37034;47.886;-3.904;2023-10-08T06:31:00;17.20;86.20
51007;DHT22;37034;47.886;-3.904;2023-10-08T06:33:27;17.10;86.60
51007;DHT22;37034;47.886;-3.904;2023-10-08T06:36:02;17.10;86.70
51007;DHT22;37034;47.886;-3.904;2023-10-08T06:38:32;17.10;86.70
51007;DHT22;37034;47.886;-3.904;2023-10-08T06:41:02;17.10;86.70
51007;DHT22;37034;47.886;-3.904;2023-10-08T06:43:44;17.10;86.50
51007;DHT22;37034;47.886;-3.904;2023-10-08T06:46:16;17.10;86.70
51007;DHT22;37034;47.886;-3.904;2023-10-08T06:48:45;17.20;86.80
51007;DHT22;37034;47.886;-3.904;2023-10-08T06:51:12;17.20;86.70
51007;DHT22;37034;47.886;-3.904;2023-10-08T06:53:46;17.20;86.70
51007;DHT22;37034;47.886;-3.904;2023-10-08T06:56:16;17.20;86.70
51007;DHT22;37034;47.886;-3.904;2023-10-08T06:58:45;17.20;86.80
51007;DHT22;37034;47.886;-3.904;2023-10-08T07:01:13;17.20;86.80
51007;DHT22;37034;47.886;-3.904;2023-10-08T07:03:39;17.10;86.80
51007;DHT22;37034;47.886;-3.904;2023-10-08T07:06:05;17.10;86.90
51007;DHT22;37034;47.886;-3.904;2023-10-08T07:08:42;17.20;87.10
51007;DHT22;37034;47.886;-3.904;2023-10-08T07:11:08;17.20;87.20
51007;DHT22;37034;47.886;-3.904;2023-10-08T07:13:37;17.20;86.90
51007;DHT22;37034;47.886;-3.904;2023-10-08T07:16:05;17.20;87.10
51007;DHT22;37034;47.886;-3.904;2023-10-08T07:18:31;17.30;87.10
51007;DHT22;37034;47.886;-3.904;2023-10-08T07:20:59;17.30;87.40
51007;DHT22;37034;47.886;-3.904;2023-10-08T07:23:37;17.40;87.50
51007;DHT22;37034;47.886;-3.904;2023-10-08T07:26:19;17.50;87.30
51007;DHT22;37034;47.886;-3.904;2023-10-08T07:28:50;17.50;87.50
51007;DHT22;37034;47.886;-3.904;2023-10-08T07:31:23;17.60;87.50
51007;DHT22;37034;47.886;-3.904;2023-10-08T07:33:54;17.70;87.20
51007;DHT22;37034;47.886;-3.904;2023-10-08T07:36:28;17.80;87.30
51007;DHT22;37034;47.886;-3.904;2023-10-08T07:38:56;17.80;87.20
51007;DHT22;37034;47.886;-3.904;2023-10-08T07:41:22;17.90;86.80
51007;DHT22;37034;47.886;-3.904;2023-10-08T07:43:49;17.90;87.10
51007;DHT22;37034;47.886;-3.904;2023-10-08T07:46:24;17.90;87.20
51007;DHT22;37034;47.886;-3.904;2023-10-08T07:48:52;18.00;87.30
51007;DHT22;37034;47.886;-3.904;2023-10-08T07:51:18;18.10;87.20
51007;DHT22;37034;47.886;-3.904;2023-10-08T07:53:50;18.20;86.90
51007;DHT22;37034;47.886;-3.904;2023-10-08T07:56:24;18.20;86.70
51007;DHT22;37034;47.886;-3.904;2023-10-08T07:58:51;18.30;86.80
51007;DHT22;37034;47.886;-3.904;2023-10-08T08:01:16;18.40;86.60
51007;DHT22;37034;47.886;-3.904;2023-10-08T08:03:42;18.40;85.90
51007;DHT22;37034;47.886;-3.904;2023-10-08T08:06:10;18.30;85.90
51007;DHT22;37034;47.886;-3.904;2023-10-08T08:08:38;18.40;86.80
51007;DHT22;37034;47.886;-3.904;2023-10-08T08:11:05;18.50;86.70
51007;DHT22;37034;47.886;-3.904;2023-10-08T08:13:35;18.60;87.10
51007;DHT22;37034;47.886;-3.904;2023-10-08T08:16:01;18.60;86.70
51007;DHT22;37034;47.886;-3.904;2023-10-08T08:18:50;18.80;86.70
51007;DHT22;37034;47.886;-3.904;2023-10-08T08:21:19;18.80;86.20
51007;DHT22;37034;47.886;-3.904;2023-10-08T08:23:48;18.90;86.50
51007;DHT22;37034;47.886;-3.904;2023-10-08T08:26:24;18.90;85.90
51007;DHT22;37034;47.886;-3.904;2023-10-08T08:28:54;19.00;86.70
51007;DHT22;37034;47.886;-3.904;2023-10-08T08:31:20;19.00;86.70
51007;DHT22;37034;47.886;-3.904;2023-10-08T08:33:46;19.20;87.00
51007;DHT22;37034;47.886;-3.904;2023-10-08T08:36:20;19.30;86.90
51007;DHT22;37034;47.886;-3.904;2023-10-08T08:38:46;19.40;87.00
51007;DHT22;37034;47.886;-3.904;2023-10-08T08:41:13;19.60;86.70
51007;DHT22;37034;47.886;-3.904;2023-10-08T08:43:39;19.70;86.50
51007;DHT22;37034;47.886;-3.904;2023-10-08T08:46:10;19.90;87.20
51007;DHT22;37034;47.886;-3.904;2023-10-08T08:48:41;20.10;87.60
51007;DHT22;37034;47.886;-3.904;2023-10-08T08:51:07;20.20;86.90
51007;DHT22;37034;47.886;-3.904;2023-10-08T08:53:35;20.30;86.70
51007;DHT22;37034;47.886;-3.904;2023-10-08T08:56:01;20.40;87.10
51007;DHT22;37034;47.886;-3.904;2023-10-08T08:58:32;20.50;86.40
51007;DHT22;37034;47.886;-3.904;2023-10-08T09:00:59;20.60;87.00
51007;DHT22;37034;47.886;-3.904;2023-10-08T09:03:25;20.80;87.10
51007;DHT22;37034;47.886;-3.904;2023-10-08T09:05:59;20.90;86.80
51007;DHT22;37034;47.886;-3.904;2023-10-08T09:08:43;21.00;86.70
51007;DHT22;37034;47.886;-3.904;2023-10-08T09:11:15;21.10;84.90
51007;DHT22;37034;47.886;-3.904;2023-10-08T09:13:41;21.30;86.60
51007;DHT22;37034;47.886;-3.904;2023-10-08T09:16:12;21.40;85.90
51007;DHT22;37034;47.886;-3.904;2023-10-08T09:18:38;21.40;85.60
51007;DHT22;37034;47.886;-3.904;2023-10-08T09:21:11;21.50;84.70
51007;DHT22;37034;47.886;-3.904;2023-10-08T09:23:41;21.50;85.10
51007;DHT22;37034;47.886;-3.904;2023-10-08T09:26:09;21.60;85.40
51007;DHT22;37034;47.886;-3.904;2023-10-08T09:28:37;21.70;85.40
51007;DHT22;37034;47.886;-3.904;2023-10-08T09:31:04;21.80;85.80
51007;DHT22;37034;47.886;-3.904;2023-10-08T09:33:32;21.90;85.50
51007;DHT22;37034;47.886;-3.904;2023-10-08T09:35:59;22.00;85.60
51007;DHT22;37034;47.886;-3.904;2023-10-08T09:38:30;22.10;85.20
51007;DHT22;37034;47.886;-3.904;2023-10-08T09:40:58;22.20;85.00
51007;DHT22;37034;47.886;-3.904;2023-10-08T09:43:26;22.30;84.70
51007;DHT22;37034;47.886;-3.904;2023-10-08T09:45:55;22.40;83.50
51007;DHT22;37034;47.886;-3.904;2023-10-08T09:48:26;22.30;83.70
51007;DHT22;37034;47.886;-3.904;2023-10-08T09:50:54;22.40;84.00
51007;DHT22;37034;47.886;-3.904;2023-10-08T09:53:31;22.50;84.30
51007;DHT22;37034;47.886;-3.904;2023-10-08T09:56:02;22.50;83.10
51007;DHT22;37034;47.886;-3.904;2023-10-08T09:58:32;22.60;83.60
51007;DHT22;37034;47.886;-3.904;2023-10-08T10:00:58;22.70;83.80
51007;DHT22;37034;47.886;-3.904;2023-10-08T10:03:27;22.80;84.00
51007;DHT22;37034;47.886;-3.904;2023-10-08T10:05:58;22.80;82.50
51007;DHT22;37034;47.886;-3.904;2023-10-08T10:08:29;22.80;82.60
51007;DHT22;37034;47.886;-3.904;2023-10-08T10:11:01;23.00;83.70
51007;DHT22;37034;47.886;-3.904;2023-10-08T10:13:39;23.00;82.70
51007;DHT22;37034;47.886;-3.904;2023-10-08T10:16:06;23.10;83.10
51007;DHT22;37034;47.886;-3.904;2023-10-08T10:18:34;23.30;83.20
51007;DHT22;37034;47.886;-3.904;2023-10-08T10:23:49;23.40;81.60
51007;DHT22;37034;47.886;-3.904;2023-10-08T10:26:27;23.50;82.10
51007;DHT22;37034;47.886;-3.904;2023-10-08T10:31:50;23.60;81.70
51007;DHT22;37034;47.886;-3.904;2023-10-08T10:34:24;23.80;82.00
51007;DHT22;37034;47.886;-3.904;2023-10-08T10:36:54;23.80;81.50
51007;DHT22;37034;47.886;-3.904;2023-10-08T10:39:34;23.90;82.50
51007;DHT22;37034;47.886;-3.904;2023-10-08T10:42:06;24.00;82.10
51007;DHT22;37034;47.886;-3.904;2023-10-08T10:44:36;24.10;82.30
51007;DHT22;37034;47.886;-3.904;2023-10-08T10:47:03;24.20;80.30
51007;DHT22;37034;47.886;-3.904;2023-10-08T10:49:41;24.30;81.50
51007;DHT22;37034;47.886;-3.904;2023-10-08T10:52:26;24.30;81.50
51007;DHT22;37034;47.886;-3.904;2023-10-08T10:55:03;24.50;82.80
51007;DHT22;37034;47.886;-3.904;2023-10-08T10:57:46;24.60;81.20
51007;DHT22;37034;47.886;-3.904;2023-10-08T11:00:22;24.70;80.00
51007;DHT22;37034;47.886;-3.904;2023-10-08T11:02:58;24.80;80.20
51007;DHT22;37034;47.886;-3.904;2023-10-08T11:05:41;24.70;80.40
51007;DHT22;37034;47.886;-3.904;2023-10-08T11:08:14;24.80;80.40
51007;DHT22;37034;47.886;-3.904;2023-10-08T11:10:42;24.90;77.40
51007;DHT22;37034;47.886;-3.904;2023-10-08T11:13:23;24.90;80.20
51007;DHT22;37034;47.886;-3.904;2023-10-08T11:15:54;25.00;79.20
51007;DHT22;37034;47.886;-3.904;2023-10-08T11:18:25;25.20;80.40
51007;DHT22;37034;47.886;-3.904;2023-10-08T11:20:53;25.30;80.30
51007;DHT22;37034;47.886;-3.904;2023-10-08T11:23:44;25.40;80.10
51007;DHT22;37034;47.886;-3.904;2023-10-08T11:26:17;25.50;80.30
51007;DHT22;37034;47.886;-3.904;2023-10-08T11:28:45;25.60;80.00
51007;DHT22;37034;47.886;-3.904;2023-10-08T11:31:14;25.70;80.30
51007;DHT22;37034;47.886;-3.904;2023-10-08T11:33:42;25.80;80.10
51007;DHT22;37034;47.886;-3.904;2023-10-08T11:36:09;25.90;80.30
51007;DHT22;37034;47.886;-3.904;2023-10-08T11:38:45;26.00;80.20
51007;DHT22;37034;47.886;-3.904;2023-10-08T11:41:16;26.10;79.20
51007;DHT22;37034;47.886;-3.904;2023-10-08T11:43:54;26.10;79.50
51007;DHT22;37034;47.886;-3.904;2023-10-08T11:46:30;26.20;78.70
51007;DHT22;37034;47.886;-3.904;2023-10-08T11:49:05;26.10;78.00
51007;DHT22;37034;47.886;-3.904;2023-10-08T11:51:35;26.10;78.80
51007;DHT22;37034;47.886;-3.904;2023-10-08T11:54:01;26.10;79.60
51007;DHT22;37034;47.886;-3.904;2023-10-08T11:56:31;26.20;80.00
51007;DHT22;37034;47.886;-3.904;2023-10-08T11:58:57;26.30;80.60
51007;DHT22;37034;47.886;-3.904;2023-10-08T12:01:24;26.50;77.80
51007;DHT22;37034;47.886;-3.904;2023-10-08T12:03:50;26.40;79.30
51007;DHT22;37034;47.886;-3.904;2023-10-08T12:06:16;26.50;80.10
51007;DHT22;37034;47.886;-3.904;2023-10-08T12:08:47;26.60;80.50
51007;DHT22;37034;47.886;-3.904;2023-10-08T12:11:19;26.70;80.20
51007;DHT22;37034;47.886;-3.904;2023-10-08T12:13:45;26.80;79.80
51007;DHT22;37034;47.886;-3.904;2023-10-08T12:16:14;26.90;79.90
51007;DHT22;37034;47.886;-3.904;2023-10-08T12:18:49;26.90;79.50
51007;DHT22;37034;47.886;-3.904;2023-10-08T12:21:21;26.90;79.70
51007;DHT22;37034;47.886;-3.904;2023-10-08T12:23:47;27.00;79.70
51007;DHT22;37034;47.886;-3.904;2023-10-08T12:26:15;27.00;79.60
51007;DHT22;37034;47.886;-3.904;2023-10-08T12:28:42;27.00;79.90
51007;DHT22;37034;47.886;-3.904;2023-10-08T12:31:12;27.10;79.80
51007;DHT22;37034;47.886;-3.904;2023-10-08T12:33:38;27.10;79.50
51007;DHT22;37034;47.886;-3.904;2023-10-08T12:36:05;27.10;79.60
51007;DHT22;37034;47.886;-3.904;2023-10-08T12:38:43;27.20;79.30
51007;DHT22;37034;47.886;-3.904;2023-10-08T12:41:12;27.20;79.00
51007;DHT22;37034;47.886;-3.904;2023-10-08T12:43:39;27.20;79.10
51007;DHT22;37034;47.886;-3.904;2023-10-08T12:46:05;27.20;79.00
51007;DHT22;37034;47.886;-3.904;2023-10-08T12:48:36;27.20;78.70
51007;DHT22;37034;47.886;-3.904;2023-10-08T12:51:02;27.20;78.80
51007;DHT22;37034;47.886;-3.904;2023-10-08T12:53:31;27.20;78.20
51007;DHT22;37034;47.886;-3.904;2023-10-08T12:56:07;27.20;78.60
51007;DHT22;37034;47.886;-3.904;2023-10-08T12:58:41;27.20;77.90
51007;DHT22;37034;47.886;-3.904;2023-10-08T13:01:16;27.30;78.70
51007;DHT22;37034;47.886;-3.904;2023-10-08T13:03:46;27.30;78.20
51007;DHT22;37034;47.886;-3.904;2023-10-08T13:06:21;27.30;78.10
51007;DHT22;37034;47.886;-3.904;2023-10-08T13:08:51;27.30;78.00
51007;DHT22;37034;47.886;-3.904;2023-10-08T13:11:21;27.40;77.90
51007;DHT22;37034;47.886;-3.904;2023-10-08T13:13:52;27.40;78.40
51007;DHT22;37034;47.886;-3.904;2023-10-08T13:16:21;27.40;76.30
51007;DHT22;37034;47.886;-3.904;2023-10-08T13:18:48;27.40;77.40
51007;DHT22;37034;47.886;-3.904;2023-10-08T13:21:14;27.30;77.40
51007;DHT22;37034;47.886;-3.904;2023-10-08T13:23:40;27.30;77.40
51007;DHT22;37034;47.886;-3.904;2023-10-08T13:26:06;27.20;77.30
51007;DHT22;37034;47.886;-3.904;2023-10-08T13:28:33;27.30;77.80
51007;DHT22;37034;47.886;-3.904;2023-10-08T13:31:00;27.30;76.40
51007;DHT22;37034;47.886;-3.904;2023-10-08T13:33:26;27.30;76.70
51007;DHT22;37034;47.886;-3.904;2023-10-08T13:35:52;27.30;77.20
51007;DHT22;37034;47.886;-3.904;2023-10-08T13:38:18;27.30;77.00
51007;DHT22;37034;47.886;-3.904;2023-10-08T13:40:51;27.30;77.10
51007;DHT22;37034;47.886;-3.904;2023-10-08T13:43:33;27.30;76.90
51007;DHT22;37034;47.886;-3.904;2023-10-08T13:46:06;27.20;76.80
51007;DHT22;37034;47.886;-3.904;2023-10-08T13:48:35;27.20;77.20
51007;DHT22;37034;47.886;-3.904;2023-10-08T13:51:02;27.20;76.90
51007;DHT22;37034;47.886;-3.904;2023-10-08T13:53:32;27.10;76.70
51007;DHT22;37034;47.886;-3.904;2023-10-08T13:55:59;27.10;76.70
51007;DHT22;37034;47.886;-3.904;2023-10-08T13:58:27;27.10;76.90
51007;DHT22;37034;47.886;-3.904;2023-10-08T14:00:58;27.10;76.90
51007;DHT22;37034;47.886;-3.904;2023-10-08T14:03:30;27.10;76.10
51007;DHT22;37034;47.886;-3.904;2023-10-08T14:05:59;27.10;76.60
51007;DHT22;37034;47.886;-3.904;2023-10-08T14:08:30;27.10;76.60
51007;DHT22;37034;47.886;-3.904;2023-10-08T14:10:57;27.10;76.40
51007;DHT22;37034;47.886;-3.904;2023-10-08T14:13:31;27.00;76.20
51007;DHT22;37034;47.886;-3.904;2023-10-08T14:16:01;27.00;76.10
51007;DHT22;37034;47.886;-3.904;2023-10-08T14:18:33;26.90;75.70
51007;DHT22;37034;47.886;-3.904;2023-10-08T14:21:07;26.90;76.10
51007;DHT22;37034;47.886;-3.904;2023-10-08T14:23:39;26.90;76.10
51007;DHT22;37034;47.886;-3.904;2023-10-08T14:26:08;26.90;76.00
51007;DHT22;37034;47.886;-3.904;2023-10-08T14:28:35;26.90;75.60
51007;DHT22;37034;47.886;-3.904;2023-10-08T14:31:08;27.00;76.00
51007;DHT22;37034;47.886;-3.904;2023-10-08T14:33:34;27.00;76.50
51007;DHT22;37034;47.886;-3.904;2023-10-08T14:36:09;27.10;75.70
51007;DHT22;37034;47.886;-3.904;2023-10-08T14:38:53;27.00;75.70
51007;DHT22;37034;47.886;-3.904;2023-10-08T14:41:50;27.00;76.20
51007;DHT22;37034;47.886;-3.904;2023-10-08T14:44:34;27.00;76.40
51007;DHT22;37034;47.886;-3.904;2023-10-08T14:47:00;27.00;76.40
51007;DHT22;37034;47.886;-3.904;2023-10-08T14:49:26;27.10;76.70
51007;DHT22;37034;47.886;-3.904;2023-10-08T14:51:52;27.10;76.40
51007;DHT22;37034;47.886;-3.904;2023-10-08T14:54:20;27.10;76.20
51007;DHT22;37034;47.886;-3.904;2023-10-08T14:56:46;27.10;76.20
51007;DHT22;37034;47.886;-3.904;2023-10-08T14:59:12;27.10;75.40
51007;DHT22;37034;47.886;-3.904;2023-10-08T15:01:38;27.10;75.20
51007;DHT22;37034;47.886;-3.904;2023-10-08T15:04:04;27.00;75.10
51007;DHT22;37034;47.886;-3.904;2023-10-08T15:06:31;26.90;75.00
51007;DHT22;37034;47.886;-3.904;2023-10-08T15:08:57;26.90;75.00
51007;DHT22;37034;47.886;-3.904;2023-10-08T15:11:23;26.80;75.00
51007;DHT22;37034;47.886;-3.904;2023-10-08T15:13:51;26.70;74.80
51007;DHT22;37034;47.886;-3.904;2023-10-08T15:16:19;26.60;74.80
51007;DHT22;37034;47.886;-3.904;2023-10-08T15:18:49;26.50;75.10
51007;DHT22;37034;47.886;-3.904;2023-10-08T15:21:14;26.50;74.80
51007;DHT22;37034;47.886;-3.904;2023-10-08T15:23:40;26.50;75.00
51007;DHT22;37034;47.886;-3.904;2023-10-08T15:26:06;26.50;74.90
51007;DHT22;37034;47.886;-3.904;2023-10-08T15:28:32;26.50;75.70
51007;DHT22;37034;47.886;-3.904;2023-10-08T15:30:58;26.40;74.50
51007;DHT22;37034;47.886;-3.904;2023-10-08T15:33:24;26.30;74.60
51007;DHT22;37034;47.886;-3.904;2023-10-08T15:35:52;26.20;74.60
51007;DHT22;37034;47.886;-3.904;2023-10-08T15:38:17;26.20;75.00
51007;DHT22;37034;47.886;-3.904;2023-10-08T15:40:43;26.20;76.10
51007;DHT22;37034;47.886;-3.904;2023-10-08T15:43:10;26.10;75.30
51007;DHT22;37034;47.886;-3.904;2023-10-08T15:45:40;26.00;75.40
51007;DHT22;37034;47.886;-3.904;2023-10-08T15:48:07;25.90;75.50
51007;DHT22;37034;47.886;-3.904;2023-10-08T15:50:33;25.80;75.60
51007;DHT22;37034;47.886;-3.904;2023-10-08T15:52:59;25.80;75.70